Observation data for Slaton on 08/14/2019      Previous  Date  Next       Current Mesonet Observations  Soil Data  Daily Summary Page  Observations in Plain Language
KSLS 140500Z 08006KT 27/18 A3013 RMK A01 T02650177  RH  060%=      5-min Rain = 0
KSLS 140505Z 08008KT 26/18 A3013 RMK A01 T02640177  RH  060%=      5-min Rain = 0
KSLS 140510Z 08008KT 26/18 A3013 RMK A01 T02640177  RH  060%=      5-min Rain = 0
KSLS 140515Z 07008KT 26/18 A3013 RMK A01 T02640177  RH  060%=      5-min Rain = 0
KSLS 140520Z 06008KT 26/18 A3013 RMK A01 T02640177  RH  060%=      5-min Rain = 0
KSLS 140525Z 06007KT 26/18 A3012 RMK A01 T02630177  RH  061%=      5-min Rain = 0
KSLS 140530Z 06006KT 26/18 A3012 RMK A01 T02610177  RH  061%=      5-min Rain = 0
KSLS 140535Z 06006KT 26/18 A3012 RMK A01 T02600177  RH  062%=      5-min Rain = 0
KSLS 140540Z 06006KT 26/18 A3011 RMK A01 T02570177  RH  063%=      5-min Rain = 0
KSLS 140545Z 07006KT 26/18 A3012 RMK A01 T02560177  RH  063%=      5-min Rain = 0
KSLS 140550Z 07006KT 26/18 A3012 RMK A01 T02560177  RH  063%=      5-min Rain = 0
KSLS 140555Z 06006KT 26/18 A3012 RMK A01 T02550177  RH  064%=      5-min Rain = 0
KSLS 140600Z 06005KT 25/18 A3012 RMK A01 T02540177  RH  064%=      5-min Rain = 0
KSLS 140605Z 06006KT 25/18 A3012 RMK A01 T02520176  RH  064%=      5-min Rain = 0
KSLS 140610Z 06005KT 25/18 A3012 RMK A01 T02510176  RH  065%=      5-min Rain = 0
KSLS 140615Z 07006KT 25/18 A3012 RMK A01 T02500177  RH  065%=      5-min Rain = 0
KSLS 140620Z 07006KT 25/18 A3012 RMK A01 T02500177  RH  065%=      5-min Rain = 0
KSLS 140625Z 06007KT 25/18 A3012 RMK A01 T02520177  RH  065%=      5-min Rain = 0
KSLS 140630Z 06007KT 25/18 A3013 RMK A01 T02520178  RH  065%=      5-min Rain = 0
KSLS 140635Z 06006KT 25/18 A3013 RMK A01 T02510177  RH  065%=      5-min Rain = 0
KSLS 140640Z 06006KT 25/18 A3013 RMK A01 T02490178  RH  066%=      5-min Rain = 0
KSLS 140645Z 07006KT 25/18 A3013 RMK A01 T02480178  RH  067%=      5-min Rain = 0
KSLS 140650Z 06007KT 25/18 A3013 RMK A01 T02480178  RH  067%=      5-min Rain = 0
KSLS 140655Z 06007KT 25/18 A3013 RMK A01 T02480178  RH  067%=      5-min Rain = 0
KSLS 140700Z 06007KT 25/18 A3013 RMK A01 T02470178  RH  067%=      5-min Rain = 0
KSLS 140705Z 06007KT 25/18 A3013 RMK A01 T02460179  RH  068%=      5-min Rain = 0
KSLS 140710Z 07007KT 25/18 A3014 RMK A01 T02460179  RH  068%=      5-min Rain = 0
KSLS 140715Z 06007KT 25/18 A3014 RMK A01 T02460179  RH  068%=      5-min Rain = 0
KSLS 140720Z 06007KT 25/18 A3014 RMK A01 T02450180  RH  069%=      5-min Rain = 0
KSLS 140725Z 06007KT 25/18 A3014 RMK A01 T02450180  RH  069%=      5-min Rain = 0
KSLS 140730Z 06006KT 24/18 A3014 RMK A01 T02430180  RH  069%=      5-min Rain = 0
KSLS 140735Z 07006KT 24/18 A3014 RMK A01 T02420180  RH  070%=      5-min Rain = 0
KSLS 140740Z 08006KT 24/18 A3013 RMK A01 T02410180  RH  070%=      5-min Rain = 0
KSLS 140745Z 09006KT 24/18 A3013 RMK A01 T02410180  RH  071%=      5-min Rain = 0
KSLS 140750Z 07006KT 24/18 A3013 RMK A01 T02420180  RH  070%=      5-min Rain = 0
KSLS 140755Z 05007KT 24/18 A3013 RMK A01 T02420180  RH  070%=      5-min Rain = 0
KSLS 140800Z 05008KT 24/18 A3013 RMK A01 T02410180  RH  070%=      5-min Rain = 0
KSLS 140805Z 05009KT 24/18 A3014 RMK A01 T02420180  RH  070%=      5-min Rain = 0
KSLS 140810Z 06008KT 24/18 A3014 RMK A01 T02430180  RH  070%=      5-min Rain = 0
KSLS 140815Z 07007KT 24/18 A3014 RMK A01 T02410180  RH  070%=      5-min Rain = 0
KSLS 140820Z 06007KT 24/18 A3014 RMK A01 T02410180  RH  071%=      5-min Rain = 0
KSLS 140825Z 06008KT 24/18 A3013 RMK A01 T02400180  RH  071%=      5-min Rain = 0
KSLS 140830Z 06007KT 24/18 A3013 RMK A01 T02400180  RH  071%=      5-min Rain = 0
KSLS 140835Z 07007KT 24/18 A3013 RMK A01 T02400180  RH  071%=      5-min Rain = 0
KSLS 140840Z 07007KT 24/18 A3013 RMK A01 T02390180  RH  072%=      5-min Rain = 0
KSLS 140845Z 07006KT 24/18 A3013 RMK A01 T02380180  RH  072%=      5-min Rain = 0
KSLS 140850Z 07006KT 24/18 A3013 RMK A01 T02370180  RH  072%=      5-min Rain = 0
KSLS 140855Z 05006KT 24/18 A3013 RMK A01 T02360180  RH  073%=      5-min Rain = 0
KSLS 140900Z 06008KT 24/18 A3013 RMK A01 T02360180  RH  073%=      5-min Rain = 0
KSLS 140905Z 06007KT 24/18 A3013 RMK A01 T02370180  RH  072%=      5-min Rain = 0
KSLS 140910Z 06006KT 24/18 A3013 RMK A01 T02360180  RH  073%=      5-min Rain = 0
KSLS 140915Z 05006KT 24/18 A3013 RMK A01 T02350180  RH  073%=      5-min Rain = 0
KSLS 140920Z 05008KT 24/18 A3013 RMK A01 T02350179  RH  073%=      5-min Rain = 0
KSLS 140925Z 04008KT 24/18 A3012 RMK A01 T02350179  RH  073%=      5-min Rain = 0
KSLS 140930Z 04008KT 23/18 A3012 RMK A01 T02340179  RH  073%=      5-min Rain = 0
KSLS 140935Z 04008KT 24/18 A3012 RMK A01 T02350179  RH  073%=      5-min Rain = 0
KSLS 140940Z 04007KT 23/18 A3013 RMK A01 T02340179  RH  073%=      5-min Rain = 0
KSLS 140945Z 05006KT 23/18 A3013 RMK A01 T02330179  RH  074%=      5-min Rain = 0
KSLS 140950Z 05007KT 23/18 A3013 RMK A01 T02320179  RH  074%=      5-min Rain = 0
KSLS 140955Z 04007KT 23/18 A3013 RMK A01 T02330179  RH  073%=      5-min Rain = 0
KSLS 141000Z 05008KT 23/18 A3013 RMK A01 T02340179  RH  073%=      5-min Rain = 0
KSLS 141005Z 05008G13KT 23/18 A3013 RMK A01 T02330178  RH  073%=      5-min Rain = 0
KSLS 141010Z 04007KT 23/18 A3013 RMK A01 T02340178  RH  072%=      5-min Rain = 0
KSLS 141015Z 04006KT 23/18 A3013 RMK A01 T02330178  RH  073%=      5-min Rain = 0
KSLS 141020Z 04007KT 23/18 A3013 RMK A01 T02330177  RH  073%=      5-min Rain = 0
KSLS 141025Z 04007KT 23/18 A3014 RMK A01 T02340177  RH  072%=      5-min Rain = 0
KSLS 141030Z 04009G16KT 23/18 A3014 RMK A01 T02340177  RH  072%=      5-min Rain = 0
KSLS 141035Z 04011G16KT 23/18 A3014 RMK A01 T02330177  RH  072%=      5-min Rain = 0
KSLS 141040Z 03012G18KT 23/18 A3014 RMK A01 T02320176  RH  073%=      5-min Rain = 0
KSLS 141045Z 04012G17KT 23/18 A3015 RMK A01 T02300175  RH  073%=      5-min Rain = 0
KSLS 141050Z 04011G16KT 23/17 A3015 RMK A01 T02290173  RH  072%=      5-min Rain = 0
KSLS 141055Z 04012G17KT 23/17 A3015 RMK A01 T02290172  RH  072%=      5-min Rain = 0
KSLS 141100Z 04014G20KT 23/17 A3015 RMK A01 T02290172  RH  072%=      5-min Rain = 0
KSLS 141105Z 03013G20KT 23/17 A3016 RMK A01 T02270173  RH  073%=      5-min Rain = 0
KSLS 141110Z 03015G20KT 23/18 A3016 RMK A01 T02250175  RH  075%=      5-min Rain = 0
KSLS 141115Z 03014G21KT 22/18 A3016 RMK A01 T02230176  RH  077%=      5-min Rain = 0
KSLS 141120Z 03012G18KT 22/18 A3017 RMK A01 T02210176  RH  078%=      5-min Rain = 0
KSLS 141125Z 04011G17KT 22/18 A3017 RMK A01 T02200175  RH  078%=      5-min Rain = 0
KSLS 141130Z 04015G20KT 22/17 A3017 RMK A01 T02180174  RH  078%=      5-min Rain = 0
KSLS 141135Z 04014G19KT 22/17 A3017 RMK A01 T02170172  RH  078%=      5-min Rain = 0
KSLS 141140Z 04012G17KT 22/17 A3017 RMK A01 T02150171  RH  078%=      5-min Rain = 0
KSLS 141145Z 04011G17KT 21/17 A3017 RMK A01 T02140169  RH  077%=      5-min Rain = 0
KSLS 141150Z 04010G15KT 21/17 A3018 RMK A01 T02140167  RH  076%=      5-min Rain = 0
KSLS 141155Z 03010KT 21/17 A3018 RMK A01 T02120165  RH  076%=      5-min Rain = 0
KSLS 141200Z 04011KT 21/16 A3018 RMK A01 T02110163  RH  076%=      5-min Rain = 0
KSLS 141205Z 03009KT 21/16 A3019 RMK A01 T02090162  RH  076%=      5-min Rain = 0
KSLS 141210Z 04010G16KT 21/16 A3019 RMK A01 T02070158  RH  076%=      5-min Rain = 0
KSLS 141215Z 03010KT 21/16 A3019 RMK A01 T02050156  RH  075%=      5-min Rain = 0
KSLS 141220Z 04011KT 20/16 A302 RMK A01 T02040155  RH  075%=      5-min Rain = 0
KSLS 141225Z 04010KT 20/15 A302 RMK A01 T02030154  RH  075%=      5-min Rain = 0
KSLS 141230Z 03010G15KT 20/15 A302 RMK A01 T02030153  RH  075%=      5-min Rain = 0
KSLS 141235Z 02009G15KT 20/15 A302 RMK A01 T02020152  RH  074%=      5-min Rain = 0
KSLS 141240Z 03007KT 20/15 A302 RMK A01 T02030152  RH  074%=      5-min Rain = 0
KSLS 141245Z 05008G14KT 20/15 A302 RMK A01 T02030151  RH  074%=      5-min Rain = 0
KSLS 141250Z 05007KT 20/15 A3021 RMK A01 T02030151  RH  074%=      5-min Rain = 0
KSLS 141255Z 04006KT 20/15 A3021 RMK A01 T02030151  RH  074%=      5-min Rain = 0
KSLS 141300Z 03007KT 20/15 A3021 RMK A01 T02040152  RH  074%=      5-min Rain = 0
KSLS 141305Z 04008KT 20/15 A3022 RMK A01 T02040152  RH  073%=      5-min Rain = 0
KSLS 141310Z 04008G14KT 21/15 A3022 RMK A01 T02060152  RH  073%=      5-min Rain = 0
KSLS 141315Z 03009KT 21/15 A3022 RMK A01 T02070152  RH  072%=      5-min Rain = 0
KSLS 141320Z 03008KT 21/15 A3022 RMK A01 T02070152  RH  072%=      5-min Rain = 0
KSLS 141325Z 04008G13KT 21/15 A3022 RMK A01 T02090153  RH  072%=      5-min Rain = 0
KSLS 141330Z 04008KT 21/15 A3022 RMK A01 T02100153  RH  072%=      5-min Rain = 0
KSLS 141335Z 05009KT 21/15 A3023 RMK A01 T02110154  RH  071%=      5-min Rain = 0
KSLS 141340Z 04008KT 21/15 A3023 RMK A01 T02130154  RH  071%=      5-min Rain = 0
KSLS 141345Z 03011KT 21/15 A3023 RMK A01 T02140154  RH  070%=      5-min Rain = 0
KSLS 141350Z 03010G15KT 22/16 A3023 RMK A01 T02160155  RH  070%=      5-min Rain = 0
KSLS 141355Z 03011KT 22/16 A3023 RMK A01 T02180155  RH  069%=      5-min Rain = 0
KSLS 141400Z 04009KT 22/16 A3023 RMK A01 T02190156  RH  069%=      5-min Rain = 0
KSLS 141405Z 04009KT 22/16 A3023 RMK A01 T02210156  RH  068%=      5-min Rain = 0
KSLS 141410Z 03008G15KT 22/16 A3024 RMK A01 T02240157  RH  067%=      5-min Rain = 0
KSLS 141415Z 03010G16KT 23/16 A3024 RMK A01 T02250156  RH  066%=      5-min Rain = 0
KSLS 141420Z 05009KT 23/16 A3024 RMK A01 T02280157  RH  066%=      5-min Rain = 0
KSLS 141425Z 03009KT 23/16 A3024 RMK A01 T02290158  RH  065%=      5-min Rain = 0
KSLS 141430Z 03009KT 23/16 A3024 RMK A01 T02320158  RH  065%=      5-min Rain = 0
KSLS 141435Z 03009KT 23/16 A3024 RMK A01 T02340159  RH  064%=      5-min Rain = 0
KSLS 141440Z 04010KT 24/16 A3024 RMK A01 T02390160  RH  063%=      5-min Rain = 0
KSLS 141445Z 04010G15KT 24/16 A3024 RMK A01 T02430161  RH  061%=      5-min Rain = 0
KSLS 141450Z 03011KT 25/16 A3024 RMK A01 T02470162  RH  061%=      5-min Rain = 0
KSLS 141455Z 04009KT 25/16 A3024 RMK A01 T02520163  RH  059%=      5-min Rain = 0
KSLS 141500Z 03009G14KT 25/16 A3024 RMK A01 T02510162  RH  059%=      5-min Rain = 0
KSLS 141505Z 03010KT 25/16 A3024 RMK A01 T02540163  RH  058%=      5-min Rain = 0
KSLS 141510Z 03010KT 25/16 A3024 RMK A01 T02530163  RH  059%=      5-min Rain = 0
KSLS 141515Z 02011G16KT 26/16 A3024 RMK A01 T02560164  RH  058%=      5-min Rain = 0
KSLS 141520Z 02013G19KT 26/17 A3023 RMK A01 T02630165  RH  056%=      5-min Rain = 0
KSLS 141525Z 03012G19KT 27/16 A3023 RMK A01 T02650164  RH  055%=      5-min Rain = 0
KSLS 141530Z 01012G18KT 27/16 A3023 RMK A01 T02680164  RH  054%=      5-min Rain = 0
KSLS 141535Z 01011KT 27/17 A3023 RMK A01 T02710165  RH  053%=      5-min Rain = 0
KSLS 141540Z 01010G15KT 27/17 A3023 RMK A01 T02730165  RH  053%=      5-min Rain = 0
KSLS 141545Z 02011KT 27/16 A3023 RMK A01 T02730163  RH  052%=      5-min Rain = 0
KSLS 141550Z 03011G17KT 27/16 A3023 RMK A01 T02720164  RH  053%=      5-min Rain = 0
KSLS 141555Z 03012G17KT 27/16 A3023 RMK A01 T02740163  RH  052%=      5-min Rain = 0
KSLS 141600Z 01014KT 27/16 A3023 RMK A01 T02730162  RH  052%=      5-min Rain = 0
KSLS 141605Z 02010G15KT 27/16 A3023 RMK A01 T02740163  RH  052%=      5-min Rain = 0
KSLS 141610Z 02011KT 28/17 A3023 RMK A01 T02780165  RH  051%=      5-min Rain = 0
KSLS 141615Z 03012G17KT 28/17 A3023 RMK A01 T02810165  RH  051%=      5-min Rain = 0
KSLS 141620Z 04012G17KT 28/16 A3022 RMK A01 T02780164  RH  051%=      5-min Rain = 0
KSLS 141625Z 04010G15KT 28/17 A3022 RMK A01 T02800166  RH  051%=      5-min Rain = 0
KSLS 141630Z 03009G14KT 28/16 A3022 RMK A01 T02830164  RH  050%=      5-min Rain = 0
KSLS 141635Z 04010G15KT 29/17 A3022 RMK A01 T02870166  RH  049%=      5-min Rain = 0
KSLS 141640Z 03011G16KT 29/17 A3022 RMK A01 T02890165  RH  048%=      5-min Rain = 0
KSLS 141645Z 03010G16KT 29/16 A3022 RMK A01 T02920164  RH  047%=      5-min Rain = 0
KSLS 141650Z 05011KT 29/16 A3022 RMK A01 T02940159  RH  045%=      5-min Rain = 0
KSLS 141655Z 05012KT 29/16 A3021 RMK A01 T02930158  RH  045%=      5-min Rain = 0
KSLS 141700Z 07011KT 30/16 A3021 RMK A01 T02950158  RH  044%=      5-min Rain = 0
KSLS 141705Z 05010G15KT 30/16 A302 RMK A01 T02990158  RH  044%=      5-min Rain = 0
KSLS 141710Z 05011G18KT 30/15 A302 RMK A01 T03010151  RH  041%=      5-min Rain = 0
KSLS 141715Z 06012G17KT 30/15 A3019 RMK A01 T03020149  RH  040%=      5-min Rain = 0
KSLS 141720Z 07013G18KT 30/14 A3019 RMK A01 T03020143  RH  039%=      5-min Rain = 0
KSLS 141725Z 06012G21KT 31/14 A3019 RMK A01 T03070143  RH  038%=      5-min Rain = 0
KSLS 141730Z 06012G18KT 31/14 A3018 RMK A01 T03080141  RH  037%=      5-min Rain = 0
KSLS 141735Z 07009G15KT 31/14 A3018 RMK A01 T03100140  RH  036%=      5-min Rain = 0
KSLS 141740Z 09013KT 32/14 A3018 RMK A01 T03160138  RH  035%=      5-min Rain = 0
KSLS 141745Z 07011G16KT 32/13 A3018 RMK A01 T03160130  RH  033%=      5-min Rain = 0
KSLS 141750Z 08010KT 32/14 A3017 RMK A01 T03160135  RH  034%=      5-min Rain = 0
KSLS 141755Z 09013KT 32/13 A3017 RMK A01 T03210126  RH  031%=      5-min Rain = 0
KSLS 141800Z 07011G16KT 32/12 A3017 RMK A01 T03160120  RH  031%=      5-min Rain = 0
KSLS 141805Z 07011G16KT 33/12 A3017 RMK A01 T03270121  RH  029%=      5-min Rain = 0
KSLS 141810Z 07013G18KT 33/12 A3016 RMK A01 T03250119  RH  029%=      5-min Rain = 0
KSLS 141815Z 07014G19KT 33/11 A3016 RMK A01 T03290113  RH  027%=      5-min Rain = 0
KSLS 141820Z 07014G20KT 33/11 A3015 RMK A01 T03310114  RH  027%=      5-min Rain = 0
KSLS 141825Z 08012KT 33/12 A3015 RMK A01 T03330121  RH  028%=      5-min Rain = 0
KSLS 141830Z 06011KT 33/12 A3016 RMK A01 T03340117  RH  027%=      5-min Rain = 0
KSLS 141835Z 06011G18KT 33/11 A3016 RMK A01 T03340111  RH  026%=      5-min Rain = 0
KSLS 141840Z 06013G18KT 33/11 A3016 RMK A01 T03320108  RH  026%=      5-min Rain = 0
KSLS 141845Z 06011G19KT 34/11 A3016 RMK A01 T03360108  RH  025%=      5-min Rain = 0
KSLS 141850Z 05012G17KT 34/11 A3016 RMK A01 T03390111  RH  025%=      5-min Rain = 0
KSLS 141855Z 04013G22KT 34/11 A3016 RMK A01 T03400110  RH  025%=      5-min Rain = 0
KSLS 141900Z 04013G20KT 34/11 A3016 RMK A01 T03390112  RH  026%=      5-min Rain = 0
KSLS 141905Z 04014G20KT 34/12 A3016 RMK A01 T03360116  RH  027%=      5-min Rain = 0
KSLS 141910Z 04011G17KT 34/12 A3016 RMK A01 T03400119  RH  027%=      5-min Rain = 0
KSLS 141915Z 03014KT 34/12 A3016 RMK A01 T03380118  RH  027%=      5-min Rain = 0
KSLS 141920Z 05012G18KT 34/11 A3016 RMK A01 T03380114  RH  026%=      5-min Rain = 0
KSLS 141925Z 05010G16KT 34/11 A3016 RMK A01 T03360114  RH  026%=      5-min Rain = 0
KSLS 141930Z 04011G16KT 34/12 A3016 RMK A01 T03400120  RH  027%=      5-min Rain = 0
KSLS 141935Z 03009G15KT 34/12 A3015 RMK A01 T03400119  RH  027%=      5-min Rain = 0
KSLS 141940Z 03011G17KT 34/12 A3015 RMK A01 T03400120  RH  027%=      5-min Rain = 0
KSLS 141945Z 03011G20KT 34/12 A3015 RMK A01 T03410119  RH  027%=      5-min Rain = 0
KSLS 141950Z 05011G17KT 34/12 A3015 RMK A01 T03420117  RH  026%=      5-min Rain = 0
KSLS 141955Z 02013G19KT 34/11 A3014 RMK A01 T03430113  RH  025%=      5-min Rain = 0
KSLS 142000Z 03013G19KT 34/11 A3014 RMK A01 T03420109  RH  025%=      5-min Rain = 0
KSLS 142005Z 02013KT 34/11 A3014 RMK A01 T03410110  RH  025%=      5-min Rain = 0
KSLS 142010Z 02010G16KT 35/12 A3014 RMK A01 T03450115  RH  025%=      5-min Rain = 0
KSLS 142015Z 02012G18KT 35/12 A3013 RMK A01 T03460117  RH  026%=      5-min Rain = 0
KSLS 142020Z 06011G16KT 34/12 A3013 RMK A01 T03400118  RH  026%=      5-min Rain = 0
KSLS 142025Z 05009G15KT 34/12 A3013 RMK A01 T03430120  RH  026%=      5-min Rain = 0
KSLS 142030Z 04011G16KT 34/12 A3013 RMK A01 T03410120  RH  027%=      5-min Rain = 0
KSLS 142035Z 05011G17KT 34/12 A3012 RMK A01 T03430120  RH  026%=      5-min Rain = 0
KSLS 142040Z 06011G17KT 35/12 A3012 RMK A01 T03500116  RH  025%=      5-min Rain = 0
KSLS 142045Z 06009KT 34/11 A3011 RMK A01 T03430114  RH  025%=      5-min Rain = 0
KSLS 142050Z 05010G16KT 35/11 A3011 RMK A01 T03500113  RH  024%=      5-min Rain = 0
KSLS 142055Z 03009G15KT 35/11 A3011 RMK A01 T03470109  RH  024%=      5-min Rain = 0
KSLS 142100Z 04005G10KT 35/11 A3011 RMK A01 T03460108  RH  024%=      5-min Rain = 0
KSLS 142105Z 02009G15KT 35/11 A301 RMK A01 T03480105  RH  023%=      5-min Rain = 0
KSLS 142110Z 04005KT 35/11 A301 RMK A01 T03450107  RH  024%=      5-min Rain = 0
KSLS 142115Z 08007G13KT 35/11 A301 RMK A01 T03460105  RH  023%=      5-min Rain = 0
KSLS 142120Z 06007KT 35/11 A3009 RMK A01 T03460109  RH  024%=      5-min Rain = 0
KSLS 142125Z 03006G14KT 34/12 A3009 RMK A01 T03440116  RH  025%=      5-min Rain = 0
KSLS 142130Z 01004KT 34/12 A3009 RMK A01 T03430117  RH  026%=      5-min Rain = 0
KSLS 142135Z 05007G12KT 34/12 A3009 RMK A01 T03440115  RH  025%=      5-min Rain = 0
KSLS 142140Z 03003G8KT 35/11 A3009 RMK A01 T03460113  RH  025%=      5-min Rain = 0
KSLS 142145Z 07005KT 35/12 A3009 RMK A01 T03500119  RH  025%=      5-min Rain = 0
KSLS 142150Z 01005KT 35/12 A3008 RMK A01 T03510116  RH  025%=      5-min Rain = 0
KSLS 142155Z 05007KT 35/12 A3008 RMK A01 T03520120  RH  025%=      5-min Rain = 0
KSLS 142200Z 05004G9KT 35/12 A3008 RMK A01 T03500118  RH  025%=      5-min Rain = 0
KSLS 142205Z 12003KT 35/11 A3008 RMK A01 T03460110  RH  024%=      5-min Rain = 0
KSLS 142210Z 10008KT 35/12 A3008 RMK A01 T03500117  RH  025%=      5-min Rain = 0
KSLS 142215Z 08006KT 35/12 A3008 RMK A01 T03480119  RH  025%=      5-min Rain = 0
KSLS 142220Z 06005G10KT 35/12 A3008 RMK A01 T03470123  RH  026%=      5-min Rain = 0
KSLS 142225Z 07008G13KT 35/13 A3008 RMK A01 T03470125  RH  027%=      5-min Rain = 0
KSLS 142230Z 07009G14KT 35/13 A3008 RMK A01 T03460126  RH  027%=      5-min Rain = 0
KSLS 142235Z 09005KT 35/13 A3008 RMK A01 T03460125  RH  027%=      5-min Rain = 0
KSLS 142240Z 06006G12KT 35/13 A3008 RMK A01 T03470127  RH  027%=      5-min Rain = 0
KSLS 142245Z 05002KT 35/13 A3008 RMK A01 T03450128  RH  027%=      5-min Rain = 0
KSLS 142250Z 04010G15KT 35/13 A3008 RMK A01 T03450127  RH  027%=      5-min Rain = 0
KSLS 142255Z 06011KT 35/13 A3008 RMK A01 T03480128  RH  027%=      5-min Rain = 0
KSLS 142300Z 05010KT 34/13 A3008 RMK A01 T03440126  RH  027%=      5-min Rain = 0
KSLS 142305Z 05006KT 34/13 A3008 RMK A01 T03440126  RH  027%=      5-min Rain = 0
KSLS 142310Z 04007G16KT 35/13 A3008 RMK A01 T03490127  RH  027%=      5-min Rain = 0
KSLS 142315Z 06010KT 35/13 A3008 RMK A01 T03460125  RH  027%=      5-min Rain = 0
KSLS 142320Z 06008KT 34/12 A3008 RMK A01 T03420123  RH  027%=      5-min Rain = 0
KSLS 142325Z 04007G12KT 34/12 A3008 RMK A01 T03420122  RH  027%=      5-min Rain = 0
KSLS 142330Z 04006KT 34/12 A3008 RMK A01 T03420122  RH  027%=      5-min Rain = 0
KSLS 142335Z 03008KT 34/12 A3008 RMK A01 T03440121  RH  026%=      5-min Rain = 0
KSLS 142340Z 03005KT 34/12 A3008 RMK A01 T03440123  RH  027%=      5-min Rain = 0
KSLS 142345Z 03007KT 34/12 A3007 RMK A01 T03430124  RH  027%=      5-min Rain = 0
KSLS 142350Z 07008G13KT 34/13 A3007 RMK A01 T03420126  RH  028%=      5-min Rain = 0
KSLS 142355Z 07006KT 34/13 A3007 RMK A01 T03410129  RH  028%=      5-min Rain = 0
KSLS 150000Z 08008KT 34/13 A3007 RMK A01 T03400130  RH  029%=      5-min Rain = 0
KSLS 150005Z 09007KT 34/13 A3007 RMK A01 T03380130  RH  029%=      5-min Rain = 0
KSLS 150010Z 06006KT 34/13 A3007 RMK A01 T03380128  RH  029%=      5-min Rain = 0
KSLS 150015Z 03006KT 34/13 A3007 RMK A01 T03380125  RH  028%=      5-min Rain = 0
KSLS 150020Z 04009KT 34/13 A3007 RMK A01 T03380128  RH  029%=      5-min Rain = 0
KSLS 150025Z 05008KT 34/13 A3007 RMK A01 T03360129  RH  029%=      5-min Rain = 0
KSLS 150030Z 05008KT 34/13 A3008 RMK A01 T03360128  RH  029%=      5-min Rain = 0
KSLS 150035Z 05005KT 34/13 A3008 RMK A01 T03350129  RH  029%=      5-min Rain = 0
KSLS 150040Z 07008KT 33/13 A3008 RMK A01 T03340130  RH  030%=      5-min Rain = 0
KSLS 150045Z 05007KT 33/13 A3008 RMK A01 T03320132  RH  030%=      5-min Rain = 0
KSLS 150050Z 06008KT 33/13 A3008 RMK A01 T03310133  RH  031%=      5-min Rain = 0
KSLS 150055Z 09010KT 33/13 A3008 RMK A01 T03290132  RH  031%=      5-min Rain = 0
KSLS 150100Z 08008KT 33/13 A3008 RMK A01 T03260132  RH  031%=      5-min Rain = 0
KSLS 150105Z 08009KT 33/13 A3008 RMK A01 T03250132  RH  032%=      5-min Rain = 0
KSLS 150110Z 08007KT 32/13 A3009 RMK A01 T03220131  RH  032%=      5-min Rain = 0
KSLS 150115Z 08007KT 32/13 A3009 RMK A01 T03200129  RH  032%=      5-min Rain = 0
KSLS 150120Z 08006KT 32/13 A3009 RMK A01 T03180129  RH  032%=      5-min Rain = 0
KSLS 150125Z 07006KT 32/13 A3009 RMK A01 T03150128  RH  033%=      5-min Rain = 0
KSLS 150130Z 07005KT 31/13 A3009 RMK A01 T03140129  RH  033%=      5-min Rain = 0
KSLS 150135Z 07005KT 31/13 A301 RMK A01 T03100129  RH  034%=      5-min Rain = 0
KSLS 150140Z 07004KT 31/13 A301 RMK A01 T03060129  RH  035%=      5-min Rain = 0
KSLS 150145Z 07005KT 30/13 A301 RMK A01 T03040130  RH  035%=      5-min Rain = 0
KSLS 150150Z 07005KT 30/13 A3011 RMK A01 T03020129  RH  035%=      5-min Rain = 0
KSLS 150155Z 08005KT 30/13 A3011 RMK A01 T03000129  RH  036%=      5-min Rain = 0
KSLS 150200Z 08006KT 30/13 A3012 RMK A01 T03000129  RH  036%=      5-min Rain = 0
KSLS 150205Z 08006KT 30/13 A3012 RMK A01 T02990130  RH  036%=      5-min Rain = 0
KSLS 150210Z 07004KT 30/13 A3012 RMK A01 T02970130  RH  037%=      5-min Rain = 0
KSLS 150215Z 07004KT 29/13 A3012 RMK A01 T02940130  RH  037%=      5-min Rain = 0
KSLS 150220Z 07005KT 29/13 A3012 RMK A01 T02930131  RH  038%=      5-min Rain = 0
KSLS 150225Z 08005KT 29/13 A3013 RMK A01 T02920133  RH  038%=      5-min Rain = 0
KSLS 150230Z 08006KT 29/13 A3013 RMK A01 T02900134  RH  039%=      5-min Rain = 0
KSLS 150235Z 09006KT 29/14 A3013 RMK A01 T02890135  RH  040%=      5-min Rain = 0
KSLS 150240Z 08006KT 29/14 A3013 RMK A01 T02880137  RH  040%=      5-min Rain = 0
KSLS 150245Z 08006KT 29/14 A3013 RMK A01 T02870137  RH  041%=      5-min Rain = 0
KSLS 150250Z 09006KT 29/14 A3013 RMK A01 T02850138  RH  041%=      5-min Rain = 0
KSLS 150255Z 09006KT 28/14 A3014 RMK A01 T02830143  RH  043%=      5-min Rain = 0
KSLS 150300Z 10006KT 28/15 A3014 RMK A01 T02820149  RH  045%=      5-min Rain = 0
KSLS 150305Z 10006KT 28/15 A3014 RMK A01 T02830152  RH  046%=      5-min Rain = 0
KSLS 150310Z 10007KT 28/16 A3014 RMK A01 T02840155  RH  046%=      5-min Rain = 0
KSLS 150315Z 10007KT 28/16 A3014 RMK A01 T02820157  RH  048%=      5-min Rain = 0
KSLS 150320Z 11006KT 28/16 A3014 RMK A01 T02810157  RH  048%=      5-min Rain = 0
KSLS 150325Z 11007KT 28/16 A3015 RMK A01 T02810157  RH  048%=      5-min Rain = 0
KSLS 150330Z 10007KT 28/16 A3015 RMK A01 T02810158  RH  048%=      5-min Rain = 0
KSLS 150335Z 10008KT 28/16 A3015 RMK A01 T02810158  RH  048%=      5-min Rain = 0
KSLS 150340Z 10008KT 28/16 A3015 RMK A01 T02800160  RH  049%=      5-min Rain = 0
KSLS 150345Z 10006KT 28/16 A3015 RMK A01 T02770160  RH  050%=      5-min Rain = 0
KSLS 150350Z 10007KT 28/16 A3016 RMK A01 T02760161  RH  051%=      5-min Rain = 0
KSLS 150355Z 10007KT 28/16 A3016 RMK A01 T02750161  RH  051%=      5-min Rain = 0
KSLS 150400Z 10007KT 27/16 A3016 RMK A01 T02740161  RH  051%=      5-min Rain = 0
KSLS 150405Z 10007KT 27/16 A3016 RMK A01 T02740161  RH  051%=      5-min Rain = 0
KSLS 150410Z 10007KT 27/16 A3016 RMK A01 T02740162  RH  052%=      5-min Rain = 0
KSLS 150415Z 11007KT 28/16 A3016 RMK A01 T02750163  RH  052%=      5-min Rain = 0
KSLS 150420Z 11006KT 27/16 A3016 RMK A01 T02740163  RH  052%=      5-min Rain = 0
KSLS 150425Z 11006KT 27/16 A3016 RMK A01 T02730163  RH  052%=      5-min Rain = 0
KSLS 150430Z 10006KT 27/16 A3016 RMK A01 T02710164  RH  053%=      5-min Rain = 0
KSLS 150435Z 10006KT 27/16 A3016 RMK A01 T02690164  RH  054%=      5-min Rain = 0
KSLS 150440Z 10005KT 27/16 A3016 RMK A01 T02670163  RH  054%=      5-min Rain = 0
KSLS 150445Z 11005KT 27/16 A3016 RMK A01 T02660163  RH  055%=      5-min Rain = 0
KSLS 150450Z 12005KT 26/16 A3016 RMK A01 T02640161  RH  054%=      5-min Rain = 0
KSLS 150455Z 12005KT 26/16 A3016 RMK A01 T02620160  RH  055%=      5-min Rain = 0

Page generated in 0.0091 seconds.